sensor_id;sensor_type;location;lat;lon;timestamp;temperature;humidity
37410;DHT22;23275;48.914;12.566;2022-08-19T00:00:32;20.20;99.90
37410;DHT22;23275;48.914;12.566;2022-08-19T00:02:58;20.20;99.90
37410;DHT22;23275;48.914;12.566;2022-08-19T00:05:23;20.20;99.90
37410;DHT22;23275;48.914;12.566;2022-08-19T00:07:50;20.20;99.90
37410;DHT22;23275;48.914;12.566;2022-08-19T00:10:17;20.20;99.90
37410;DHT22;23275;48.914;12.566;2022-08-19T00:12:44;20.20;99.90
37410;DHT22;23275;48.914;12.566;2022-08-19T00:15:12;20.20;99.90
37410;DHT22;23275;48.914;12.566;2022-08-19T00:17:41;20.20;99.90
37410;DHT22;23275;48.914;12.566;2022-08-19T00:20:09;20.20;99.90
37410;DHT22;23275;48.914;12.566;2022-08-19T00:22:36;20.20;99.90
37410;DHT22;23275;48.914;12.566;2022-08-19T00:25:03;20.30;99.90
37410;DHT22;23275;48.914;12.566;2022-08-19T00:27:28;20.30;99.90
37410;DHT22;23275;48.914;12.566;2022-08-19T00:29:54;20.30;99.90
37410;DHT22;23275;48.914;12.566;2022-08-19T00:32:20;20.30;99.90
37410;DHT22;23275;48.914;12.566;2022-08-19T00:34:46;20.30;99.90
37410;DHT22;23275;48.914;12.566;2022-08-19T00:37:11;20.20;99.90
37410;DHT22;23275;48.914;12.566;2022-08-19T00:39:37;20.20;99.90
37410;DHT22;23275;48.914;12.566;2022-08-19T00:42:03;20.20;99.90
37410;DHT22;23275;48.914;12.566;2022-08-19T00:44:29;20.20;99.90
37410;DHT22;23275;48.914;12.566;2022-08-19T00:46:57;20.20;99.90
37410;DHT22;23275;48.914;12.566;2022-08-19T00:49:35;20.20;99.90
37410;DHT22;23275;48.914;12.566;2022-08-19T00:52:06;20.20;99.90
37410;DHT22;23275;48.914;12.566;2022-08-19T00:54:32;20.20;99.90
37410;DHT22;23275;48.914;12.566;2022-08-19T00:56:59;20.30;99.90
37410;DHT22;23275;48.914;12.566;2022-08-19T00:59:28;20.20;99.90
37410;DHT22;23275;48.914;12.566;2022-08-19T01:01:54;20.30;99.90
37410;DHT22;23275;48.914;12.566;2022-08-19T01:04:20;20.30;99.90
37410;DHT22;23275;48.914;12.566;2022-08-19T01:06:45;20.30;99.90
37410;DHT22;23275;48.914;12.566;2022-08-19T01:09:11;20.30;99.90
37410;DHT22;23275;48.914;12.566;2022-08-19T01:11:40;20.30;99.90
37410;DHT22;23275;48.914;12.566;2022-08-19T01:14:08;20.30;99.90
37410;DHT22;23275;48.914;12.566;2022-08-19T01:16:35;20.40;99.90
37410;DHT22;23275;48.914;12.566;2022-08-19T01:19:01;20.40;99.90
37410;DHT22;23275;48.914;12.566;2022-08-19T01:21:32;20.40;99.90
37410;DHT22;23275;48.914;12.566;2022-08-19T01:24:00;20.40;99.90
37410;DHT22;23275;48.914;12.566;2022-08-19T01:26:26;20.40;99.90
37410;DHT22;23275;48.914;12.566;2022-08-19T01:28:55;20.40;99.90
37410;DHT22;23275;48.914;12.566;2022-08-19T01:31:24;20.40;99.90
37410;DHT22;23275;48.914;12.566;2022-08-19T01:33:52;20.50;99.90
37410;DHT22;23275;48.914;12.566;2022-08-19T01:36:27;20.50;99.90
37410;DHT22;23275;48.914;12.566;2022-08-19T01:38:52;20.50;99.90
37410;DHT22;23275;48.914;12.566;2022-08-19T01:41:18;20.50;99.90
37410;DHT22;23275;48.914;12.566;2022-08-19T01:43:44;20.50;99.90
37410;DHT22;23275;48.914;12.566;2022-08-19T01:46:10;20.50;99.90
37410;DHT22;23275;48.914;12.566;2022-08-19T01:48:41;20.40;99.90
37410;DHT22;23275;48.914;12.566;2022-08-19T01:51:08;20.40;99.90
37410;DHT22;23275;48.914;12.566;2022-08-19T01:53:34;20.40;99.90
37410;DHT22;23275;48.914;12.566;2022-08-19T01:55:59;20.50;99.90
37410;DHT22;23275;48.914;12.566;2022-08-19T01:58:31;20.40;99.90
37410;DHT22;23275;48.914;12.566;2022-08-19T02:00:58;20.40;99.90
37410;DHT22;23275;48.914;12.566;2022-08-19T02:03:24;20.40;99.90
37410;DHT22;23275;48.914;12.566;2022-08-19T02:05:58;20.40;99.90
37410;DHT22;23275;48.914;12.566;2022-08-19T02:08:26;20.40;99.90
37410;DHT22;23275;48.914;12.566;2022-08-19T02:10:52;20.40;99.90
37410;DHT22;23275;48.914;12.566;2022-08-19T02:13:18;20.40;99.90
37410;DHT22;23275;48.914;12.566;2022-08-19T02:15:44;20.40;99.90
37410;DHT22;23275;48.914;12.566;2022-08-19T02:18:09;20.40;99.90
37410;DHT22;23275;48.914;12.566;2022-08-19T02:20:36;20.30;99.90
37410;DHT22;23275;48.914;12.566;2022-08-19T02:23:03;20.40;99.90
37410;DHT22;23275;48.914;12.566;2022-08-19T02:25:28;20.40;99.90
37410;DHT22;23275;48.914;12.566;2022-08-19T02:27:54;20.40;99.90
37410;DHT22;23275;48.914;12.566;2022-08-19T02:30:20;20.40;99.90
37410;DHT22;23275;48.914;12.566;2022-08-19T02:32:45;20.40;99.90
37410;DHT22;23275;48.914;12.566;2022-08-19T02:35:12;20.40;99.90
37410;DHT22;23275;48.914;12.566;2022-08-19T02:37:38;20.40;99.90
37410;DHT22;23275;48.914;12.566;2022-08-19T02:40:22;20.40;99.90
37410;DHT22;23275;48.914;12.566;2022-08-19T02:42:48;20.40;99.90
37410;DHT22;23275;48.914;12.566;2022-08-19T02:45:14;20.40;99.90
37410;DHT22;23275;48.914;12.566;2022-08-19T02:47:40;20.50;99.90
37410;DHT22;23275;48.914;12.566;2022-08-19T02:50:06;20.50;99.90
37410;DHT22;23275;48.914;12.566;2022-08-19T02:52:33;20.40;99.90
37410;DHT22;23275;48.914;12.566;2022-08-19T02:54:59;20.40;99.90
37410;DHT22;23275;48.914;12.566;2022-08-19T02:57:25;20.50;99.90
37410;DHT22;23275;48.914;12.566;2022-08-19T02:59:51;20.40;99.90
37410;DHT22;23275;48.914;12.566;2022-08-19T03:02:17;20.40;99.90
37410;DHT22;23275;48.914;12.566;2022-08-19T03:04:43;20.40;99.90
37410;DHT22;23275;48.914;12.566;2022-08-19T03:07:09;20.40;99.90
37410;DHT22;23275;48.914;12.566;2022-08-19T03:09:38;20.40;99.90
37410;DHT22;23275;48.914;12.566;2022-08-19T03:12:05;20.30;99.90
37410;DHT22;23275;48.914;12.566;2022-08-19T03:14:32;20.30;99.90
37410;DHT22;23275;48.914;12.566;2022-08-19T03:16:57;20.20;99.90
37410;DHT22;23275;48.914;12.566;2022-08-19T03:19:23;20.20;99.90
37410;DHT22;23275;48.914;12.566;2022-08-19T03:21:49;20.10;99.90
37410;DHT22;23275;48.914;12.566;2022-08-19T03:24:16;20.10;99.90
37410;DHT22;23275;48.914;12.566;2022-08-19T03:26:51;20.10;99.90
37410;DHT22;23275;48.914;12.566;2022-08-19T03:29:19;20.10;99.90
37410;DHT22;23275;48.914;12.566;2022-08-19T03:31:45;20.00;99.90
37410;DHT22;23275;48.914;12.566;2022-08-19T03:34:13;20.00;99.90
37410;DHT22;23275;48.914;12.566;2022-08-19T03:36:39;20.00;99.90
37410;DHT22;23275;48.914;12.566;2022-08-19T03:39:05;20.10;99.90
37410;DHT22;23275;48.914;12.566;2022-08-19T03:41:35;20.10;99.90
37410;DHT22;23275;48.914;12.566;2022-08-19T03:44:03;20.10;99.90
37410;DHT22;23275;48.914;12.566;2022-08-19T03:46:32;20.10;99.90
37410;DHT22;23275;48.914;12.566;2022-08-19T03:49:00;20.10;99.90
37410;DHT22;23275;48.914;12.566;2022-08-19T03:51:36;20.10;99.90
37410;DHT22;23275;48.914;12.566;2022-08-19T03:54:08;20.20;99.90
37410;DHT22;23275;48.914;12.566;2022-08-19T03:56:36;20.10;99.90
37410;DHT22;23275;48.914;12.566;2022-08-19T03:59:03;20.10;99.90
37410;DHT22;23275;48.914;12.566;2022-08-19T04:01:29;20.20;99.90
37410;DHT22;23275;48.914;12.566;2022-08-19T04:03:56;20.20;99.90
37410;DHT22;23275;48.914;12.566;2022-08-19T04:06:33;20.10;99.90
37410;DHT22;23275;48.914;12.566;2022-08-19T04:09:02;20.10;99.90
37410;DHT22;23275;48.914;12.566;2022-08-19T04:11:33;20.10;99.90
37410;DHT22;23275;48.914;12.566;2022-08-19T04:13:59;20.10;99.90
37410;DHT22;23275;48.914;12.566;2022-08-19T04:16:26;20.10;99.90
37410;DHT22;23275;48.914;12.566;2022-08-19T04:18:55;20.10;99.90
37410;DHT22;23275;48.914;12.566;2022-08-19T04:21:25;20.10;99.90
37410;DHT22;23275;48.914;12.566;2022-08-19T04:23:53;20.10;99.90
37410;DHT22;23275;48.914;12.566;2022-08-19T04:26:37;20.10;99.90
37410;DHT22;23275;48.914;12.566;2022-08-19T04:29:07;20.10;99.90
37410;DHT22;23275;48.914;12.566;2022-08-19T04:31:33;20.10;99.90
37410;DHT22;23275;48.914;12.566;2022-08-19T04:34:06;20.10;99.90
37410;DHT22;23275;48.914;12.566;2022-08-19T04:36:36;20.20;99.90
37410;DHT22;23275;48.914;12.566;2022-08-19T04:39:08;20.10;99.90
37410;DHT22;23275;48.914;12.566;2022-08-19T04:41:33;20.20;99.90
37410;DHT22;23275;48.914;12.566;2022-08-19T04:44:19;20.20;99.90
37410;DHT22;23275;48.914;12.566;2022-08-19T04:46:45;20.20;99.90
37410;DHT22;23275;48.914;12.566;2022-08-19T04:49:13;20.20;99.90
37410;DHT22;23275;48.914;12.566;2022-08-19T04:51:41;20.20;99.90
37410;DHT22;23275;48.914;12.566;2022-08-19T04:54:07;20.30;99.90
37410;DHT22;23275;48.914;12.566;2022-08-19T04:56:33;20.30;99.90
37410;DHT22;23275;48.914;12.566;2022-08-19T04:58:59;20.30;99.90
37410;DHT22;23275;48.914;12.566;2022-08-19T05:01:30;20.30;99.90
37410;DHT22;23275;48.914;12.566;2022-08-19T05:03:57;20.30;99.90
37410;DHT22;23275;48.914;12.566;2022-08-19T05:06:23;20.30;99.90
37410;DHT22;23275;48.914;12.566;2022-08-19T05:08:49;20.40;99.90
37410;DHT22;23275;48.914;12.566;2022-08-19T05:11:36;20.40;99.90
37410;DHT22;23275;48.914;12.566;2022-08-19T05:14:04;20.50;99.90
37410;DHT22;23275;48.914;12.566;2022-08-19T05:16:30;20.60;99.90
37410;DHT22;23275;48.914;12.566;2022-08-19T05:18:56;20.60;99.90
37410;DHT22;23275;48.914;12.566;2022-08-19T05:21:41;20.70;99.90
37410;DHT22;23275;48.914;12.566;2022-08-19T05:24:26;20.70;99.90
37410;DHT22;23275;48.914;12.566;2022-08-19T05:26:53;20.70;99.90
37410;DHT22;23275;48.914;12.566;2022-08-19T05:29:23;20.70;99.90
37410;DHT22;23275;48.914;12.566;2022-08-19T05:31:50;20.80;99.90
37410;DHT22;23275;48.914;12.566;2022-08-19T05:34:18;20.90;99.90
37410;DHT22;23275;48.914;12.566;2022-08-19T05:36:47;20.90;99.90
37410;DHT22;23275;48.914;12.566;2022-08-19T05:39:17;20.80;99.90
37410;DHT22;23275;48.914;12.566;2022-08-19T05:41:48;20.70;99.90
37410;DHT22;23275;48.914;12.566;2022-08-19T05:44:15;20.70;99.90
37410;DHT22;23275;48.914;12.566;2022-08-19T05:46:43;20.70;99.90
37410;DHT22;23275;48.914;12.566;2022-08-19T05:49:09;20.70;99.90
37410;DHT22;23275;48.914;12.566;2022-08-19T05:51:36;20.70;99.90
37410;DHT22;23275;48.914;12.566;2022-08-19T05:54:05;20.70;99.90
37410;DHT22;23275;48.914;12.566;2022-08-19T05:56:33;20.70;99.90
37410;DHT22;23275;48.914;12.566;2022-08-19T05:59:02;20.80;99.90
37410;DHT22;23275;48.914;12.566;2022-08-19T06:01:29;20.80;99.90
37410;DHT22;23275;48.914;12.566;2022-08-19T06:03:54;20.80;99.90
37410;DHT22;23275;48.914;12.566;2022-08-19T06:06:20;20.90;99.90
37410;DHT22;23275;48.914;12.566;2022-08-19T06:08:46;20.90;99.90
37410;DHT22;23275;48.914;12.566;2022-08-19T06:14:02;20.80;99.90
37410;DHT22;23275;48.914;12.566;2022-08-19T06:16:29;20.80;99.90
37410;DHT22;23275;48.914;12.566;2022-08-19T06:18:59;20.80;99.90
37410;DHT22;23275;48.914;12.566;2022-08-19T06:21:29;20.80;99.90
37410;DHT22;23275;48.914;12.566;2022-08-19T06:23:56;20.80;99.90
37410;DHT22;23275;48.914;12.566;2022-08-19T06:26:22;20.80;99.90
37410;DHT22;23275;48.914;12.566;2022-08-19T06:28:49;20.80;99.90
37410;DHT22;23275;48.914;12.566;2022-08-19T06:31:17;20.90;99.90
37410;DHT22;23275;48.914;12.566;2022-08-19T06:33:44;21.00;99.90
37410;DHT22;23275;48.914;12.566;2022-08-19T06:36:30;21.00;99.90
37410;DHT22;23275;48.914;12.566;2022-08-19T06:39:06;21.00;99.90
37410;DHT22;23275;48.914;12.566;2022-08-19T06:41:38;21.00;99.90
37410;DHT22;23275;48.914;12.566;2022-08-19T06:44:05;21.00;99.90
37410;DHT22;23275;48.914;12.566;2022-08-19T06:46:30;21.00;99.90
37410;DHT22;23275;48.914;12.566;2022-08-19T06:48:57;21.00;99.90
37410;DHT22;23275;48.914;12.566;2022-08-19T06:51:23;21.00;99.90
37410;DHT22;23275;48.914;12.566;2022-08-19T06:53:51;21.10;99.90
37410;DHT22;23275;48.914;12.566;2022-08-19T06:56:19;21.20;99.90
37410;DHT22;23275;48.914;12.566;2022-08-19T06:58:47;21.20;99.90
37410;DHT22;23275;48.914;12.566;2022-08-19T07:01:17;21.20;99.90
37410;DHT22;23275;48.914;12.566;2022-08-19T07:03:42;21.30;99.90
37410;DHT22;23275;48.914;12.566;2022-08-19T07:06:11;21.40;99.90
37410;DHT22;23275;48.914;12.566;2022-08-19T07:08:38;21.40;99.90
37410;DHT22;23275;48.914;12.566;2022-08-19T07:11:10;21.40;99.90
37410;DHT22;23275;48.914;12.566;2022-08-19T07:13:37;21.40;99.90
37410;DHT22;23275;48.914;12.566;2022-08-19T07:16:07;21.40;99.90
37410;DHT22;23275;48.914;12.566;2022-08-19T07:18:34;21.40;99.90
37410;DHT22;23275;48.914;12.566;2022-08-19T07:21:05;21.50;99.90
37410;DHT22;23275;48.914;12.566;2022-08-19T07:23:32;21.40;99.90
37410;DHT22;23275;48.914;12.566;2022-08-19T07:25:58;21.40;99.90
37410;DHT22;23275;48.914;12.566;2022-08-19T07:28:29;21.30;99.90
37410;DHT22;23275;48.914;12.566;2022-08-19T07:30:54;21.30;99.90
37410;DHT22;23275;48.914;12.566;2022-08-19T07:33:21;21.30;99.90
37410;DHT22;23275;48.914;12.566;2022-08-19T07:35:48;21.30;99.90
37410;DHT22;23275;48.914;12.566;2022-08-19T07:38:15;21.30;99.90
37410;DHT22;23275;48.914;12.566;2022-08-19T07:40:41;21.30;99.90
37410;DHT22;23275;48.914;12.566;2022-08-19T07:43:08;21.30;99.90
37410;DHT22;23275;48.914;12.566;2022-08-19T07:45:34;21.30;99.90
37410;DHT22;23275;48.914;12.566;2022-08-19T07:48:06;21.30;99.90
37410;DHT22;23275;48.914;12.566;2022-08-19T07:50:32;21.40;99.90
37410;DHT22;23275;48.914;12.566;2022-08-19T07:52:59;21.40;99.90
37410;DHT22;23275;48.914;12.566;2022-08-19T07:55:27;21.40;99.90
37410;DHT22;23275;48.914;12.566;2022-08-19T07:57:52;21.40;99.90
37410;DHT22;23275;48.914;12.566;2022-08-19T08:00:19;21.40;99.90
37410;DHT22;23275;48.914;12.566;2022-08-19T08:02:44;21.40;99.90
37410;DHT22;23275;48.914;12.566;2022-08-19T08:05:11;21.50;99.90
37410;DHT22;23275;48.914;12.566;2022-08-19T08:07:58;21.50;99.90
37410;DHT22;23275;48.914;12.566;2022-08-19T08:10:42;21.60;99.90
37410;DHT22;23275;48.914;12.566;2022-08-19T08:13:09;21.60;99.90
37410;DHT22;23275;48.914;12.566;2022-08-19T08:15:38;21.60;99.90
37410;DHT22;23275;48.914;12.566;2022-08-19T08:18:06;21.70;99.90
37410;DHT22;23275;48.914;12.566;2022-08-19T08:20:33;21.80;99.90
37410;DHT22;23275;48.914;12.566;2022-08-19T08:22:58;21.90;99.90
37410;DHT22;23275;48.914;12.566;2022-08-19T08:25:42;22.00;99.90
37410;DHT22;23275;48.914;12.566;2022-08-19T08:28:08;22.00;99.90
37410;DHT22;23275;48.914;12.566;2022-08-19T08:30:34;22.10;99.90
37410;DHT22;23275;48.914;12.566;2022-08-19T08:33:02;22.20;99.90
37410;DHT22;23275;48.914;12.566;2022-08-19T08:35:28;22.30;99.90
37410;DHT22;23275;48.914;12.566;2022-08-19T08:37:54;22.40;99.90
37410;DHT22;23275;48.914;12.566;2022-08-19T08:43:04;22.70;99.90
37410;DHT22;23275;48.914;12.566;2022-08-19T08:45:33;22.90;99.90
37410;DHT22;23275;48.914;12.566;2022-08-19T08:48:04;23.10;99.90
37410;DHT22;23275;48.914;12.566;2022-08-19T08:50:36;23.30;99.90
37410;DHT22;23275;48.914;12.566;2022-08-19T08:53:06;23.40;99.90
37410;DHT22;23275;48.914;12.566;2022-08-19T08:55:33;23.50;99.90
37410;DHT22;23275;48.914;12.566;2022-08-19T08:58:05;23.50;99.90
37410;DHT22;23275;48.914;12.566;2022-08-19T09:00:37;23.50;99.90
37410;DHT22;23275;48.914;12.566;2022-08-19T09:03:26;23.60;99.90
37410;DHT22;23275;48.914;12.566;2022-08-19T09:06:14;23.70;99.90
37410;DHT22;23275;48.914;12.566;2022-08-19T09:09:10;23.60;99.90
37410;DHT22;23275;48.914;12.566;2022-08-19T09:11:47;23.60;99.90
37410;DHT22;23275;48.914;12.566;2022-08-19T09:16:57;23.40;99.90
37410;DHT22;23275;48.914;12.566;2022-08-19T09:19:23;23.20;99.90
37410;DHT22;23275;48.914;12.566;2022-08-19T09:21:48;23.00;99.90
37410;DHT22;23275;48.914;12.566;2022-08-19T09:24:15;22.80;99.90
37410;DHT22;23275;48.914;12.566;2022-08-19T09:26:48;22.70;99.90
37410;DHT22;23275;48.914;12.566;2022-08-19T09:29:14;22.60;99.90
37410;DHT22;23275;48.914;12.566;2022-08-19T09:31:39;22.60;99.90
37410;DHT22;23275;48.914;12.566;2022-08-19T09:34:05;22.60;99.90
37410;DHT22;23275;48.914;12.566;2022-08-19T09:36:31;22.60;99.90
37410;DHT22;23275;48.914;12.566;2022-08-19T09:39:03;22.70;99.90
37410;DHT22;23275;48.914;12.566;2022-08-19T09:41:29;22.70;99.90
37410;DHT22;23275;48.914;12.566;2022-08-19T09:43:56;22.70;99.90
37410;DHT22;23275;48.914;12.566;2022-08-19T09:46:24;22.60;99.90
37410;DHT22;23275;48.914;12.566;2022-08-19T09:48:51;22.40;99.90
37410;DHT22;23275;48.914;12.566;2022-08-19T09:51:21;22.20;99.90
37410;DHT22;23275;48.914;12.566;2022-08-19T09:53:48;22.20;99.90
37410;DHT22;23275;48.914;12.566;2022-08-19T09:56:21;22.10;99.90
37410;DHT22;23275;48.914;12.566;2022-08-19T09:58:53;22.20;99.90
37410;DHT22;23275;48.914;12.566;2022-08-19T10:01:23;22.20;99.90
37410;DHT22;23275;48.914;12.566;2022-08-19T10:03:53;22.30;99.90
37410;DHT22;23275;48.914;12.566;2022-08-19T10:06:29;22.30;99.90
37410;DHT22;23275;48.914;12.566;2022-08-19T10:08:59;22.40;99.90
37410;DHT22;23275;48.914;12.566;2022-08-19T10:11:25;22.50;99.90
37410;DHT22;23275;48.914;12.566;2022-08-19T10:13:52;22.70;99.90
37410;DHT22;23275;48.914;12.566;2022-08-19T10:16:20;22.80;99.90
37410;DHT22;23275;48.914;12.566;2022-08-19T10:18:48;22.70;99.90
37410;DHT22;23275;48.914;12.566;2022-08-19T10:21:17;22.80;99.90
37410;DHT22;23275;48.914;12.566;2022-08-19T10:23:45;22.80;99.90
37410;DHT22;23275;48.914;12.566;2022-08-19T10:26:14;22.90;99.90
37410;DHT22;23275;48.914;12.566;2022-08-19T10:28:40;23.10;99.90
37410;DHT22;23275;48.914;12.566;2022-08-19T10:31:09;23.20;99.90
37410;DHT22;23275;48.914;12.566;2022-08-19T10:33:35;23.30;99.90
37410;DHT22;23275;48.914;12.566;2022-08-19T10:36:17;23.40;99.90
37410;DHT22;23275;48.914;12.566;2022-08-19T10:38:45;23.40;99.90
37410;DHT22;23275;48.914;12.566;2022-08-19T10:41:19;23.40;99.90
37410;DHT22;23275;48.914;12.566;2022-08-19T10:43:50;23.50;99.90
37410;DHT22;23275;48.914;12.566;2022-08-19T10:46:17;23.50;99.90
37410;DHT22;23275;48.914;12.566;2022-08-19T10:48:46;23.70;99.90
37410;DHT22;23275;48.914;12.566;2022-08-19T10:51:12;23.80;99.90
37410;DHT22;23275;48.914;12.566;2022-08-19T10:53:56;23.90;99.90
37410;DHT22;23275;48.914;12.566;2022-08-19T10:56:29;24.10;99.90
37410;DHT22;23275;48.914;12.566;2022-08-19T10:59:15;24.20;99.90
37410;DHT22;23275;48.914;12.566;2022-08-19T11:01:43;24.40;99.90
37410;DHT22;23275;48.914;12.566;2022-08-19T11:04:09;24.50;99.90
37410;DHT22;23275;48.914;12.566;2022-08-19T11:06:41;24.50;99.90
37410;DHT22;23275;48.914;12.566;2022-08-19T11:09:09;24.50;99.90
37410;DHT22;23275;48.914;12.566;2022-08-19T11:11:37;24.40;99.90
37410;DHT22;23275;48.914;12.566;2022-08-19T11:14:10;24.30;99.90
37410;DHT22;23275;48.914;12.566;2022-08-19T11:16:36;24.10;99.90
37410;DHT22;23275;48.914;12.566;2022-08-19T11:19:03;24.00;99.90
37410;DHT22;23275;48.914;12.566;2022-08-19T11:21:32;24.10;99.90
37410;DHT22;23275;48.914;12.566;2022-08-19T11:24:01;24.20;99.90
37410;DHT22;23275;48.914;12.566;2022-08-19T11:26:28;24.40;99.90
37410;DHT22;23275;48.914;12.566;2022-08-19T11:28:54;24.50;99.90
37410;DHT22;23275;48.914;12.566;2022-08-19T11:31:24;24.70;99.90
37410;DHT22;23275;48.914;12.566;2022-08-19T11:33:50;25.00;99.90
37410;DHT22;23275;48.914;12.566;2022-08-19T11:36:17;25.50;99.90
37410;DHT22;23275;48.914;12.566;2022-08-19T11:38:43;26.00;99.90
37410;DHT22;23275;48.914;12.566;2022-08-19T11:41:09;26.30;99.90
37410;DHT22;23275;48.914;12.566;2022-08-19T11:43:35;26.40;99.90
37410;DHT22;23275;48.914;12.566;2022-08-19T11:46:06;26.40;99.90
37410;DHT22;23275;48.914;12.566;2022-08-19T11:48:33;26.10;99.90
37410;DHT22;23275;48.914;12.566;2022-08-19T11:50:59;26.00;99.90
37410;DHT22;23275;48.914;12.566;2022-08-19T11:53:24;25.90;99.90
37410;DHT22;23275;48.914;12.566;2022-08-19T11:55:52;25.70;99.90
37410;DHT22;23275;48.914;12.566;2022-08-19T11:58:21;25.50;99.90
37410;DHT22;23275;48.914;12.566;2022-08-19T12:00:47;25.50;99.90
37410;DHT22;23275;48.914;12.566;2022-08-19T12:03:13;25.40;99.90
37410;DHT22;23275;48.914;12.566;2022-08-19T12:05:40;25.20;99.90
37410;DHT22;23275;48.914;12.566;2022-08-19T12:08:14;25.20;99.90
37410;DHT22;23275;48.914;12.566;2022-08-19T12:10:43;25.20;99.90
37410;DHT22;23275;48.914;12.566;2022-08-19T12:13:13;25.40;99.90
37410;DHT22;23275;48.914;12.566;2022-08-19T12:15:46;25.50;99.90
37410;DHT22;23275;48.914;12.566;2022-08-19T12:18:12;25.60;99.90
37410;DHT22;23275;48.914;12.566;2022-08-19T12:20:41;25.80;99.90
37410;DHT22;23275;48.914;12.566;2022-08-19T12:23:07;26.10;99.90
37410;DHT22;23275;48.914;12.566;2022-08-19T12:25:42;26.50;99.90
37410;DHT22;23275;48.914;12.566;2022-08-19T12:28:08;26.50;99.90
37410;DHT22;23275;48.914;12.566;2022-08-19T12:30:37;26.70;99.90
37410;DHT22;23275;48.914;12.566;2022-08-19T12:33:03;26.80;99.90
37410;DHT22;23275;48.914;12.566;2022-08-19T12:35:29;27.00;99.90
37410;DHT22;23275;48.914;12.566;2022-08-19T12:37:55;26.90;99.90
37410;DHT22;23275;48.914;12.566;2022-08-19T12:40:21;26.50;99.90
37410;DHT22;23275;48.914;12.566;2022-08-19T12:42:46;26.30;99.90
37410;DHT22;23275;48.914;12.566;2022-08-19T12:45:14;26.30;99.90
37410;DHT22;23275;48.914;12.566;2022-08-19T12:47:40;26.20;99.90
37410;DHT22;23275;48.914;12.566;2022-08-19T12:50:12;26.00;99.90
37410;DHT22;23275;48.914;12.566;2022-08-19T12:52:40;26.00;99.90
37410;DHT22;23275;48.914;12.566;2022-08-19T12:55:11;26.20;99.90
37410;DHT22;23275;48.914;12.566;2022-08-19T12:57:40;26.60;99.90
37410;DHT22;23275;48.914;12.566;2022-08-19T13:00:13;26.90;99.90
37410;DHT22;23275;48.914;12.566;2022-08-19T13:02:43;27.00;99.90
37410;DHT22;23275;48.914;12.566;2022-08-19T13:05:19;26.90;99.90
37410;DHT22;23275;48.914;12.566;2022-08-19T13:07:46;26.90;99.90
37410;DHT22;23275;48.914;12.566;2022-08-19T13:10:14;26.80;99.90
37410;DHT22;23275;48.914;12.566;2022-08-19T13:12:41;26.80;99.90
37410;DHT22;23275;48.914;12.566;2022-08-19T13:15:07;26.60;99.90
37410;DHT22;23275;48.914;12.566;2022-08-19T13:17:34;26.50;99.90
37410;DHT22;23275;48.914;12.566;2022-08-19T13:20:00;26.40;99.90
37410;DHT22;23275;48.914;12.566;2022-08-19T13:22:25;26.40;99.90
37410;DHT22;23275;48.914;12.566;2022-08-19T13:24:52;26.40;99.90
37410;DHT22;23275;48.914;12.566;2022-08-19T13:27:18;26.50;99.90
37410;DHT22;23275;48.914;12.566;2022-08-19T13:29:43;26.80;99.90
37410;DHT22;23275;48.914;12.566;2022-08-19T13:32:29;26.80;99.90
37410;DHT22;23275;48.914;12.566;2022-08-19T13:35:13;26.90;99.90
37410;DHT22;23275;48.914;12.566;2022-08-19T13:37:38;26.90;99.90
37410;DHT22;23275;48.914;12.566;2022-08-19T13:40:14;27.00;99.90
37410;DHT22;23275;48.914;12.566;2022-08-19T13:42:42;27.00;99.90
37410;DHT22;23275;48.914;12.566;2022-08-19T13:45:09;27.10;99.90
37410;DHT22;23275;48.914;12.566;2022-08-19T13:47:36;27.10;99.90
37410;DHT22;23275;48.914;12.566;2022-08-19T13:50:13;27.00;99.90
37410;DHT22;23275;48.914;12.566;2022-08-19T13:52:40;26.90;99.90
37410;DHT22;23275;48.914;12.566;2022-08-19T13:55:06;26.80;99.90
37410;DHT22;23275;48.914;12.566;2022-08-19T13:57:32;26.80;99.90
37410;DHT22;23275;48.914;12.566;2022-08-19T13:59:58;26.90;99.90
37410;DHT22;23275;48.914;12.566;2022-08-19T14:02:24;26.60;99.90
37410;DHT22;23275;48.914;12.566;2022-08-19T14:04:51;26.30;99.90
37410;DHT22;23275;48.914;12.566;2022-08-19T14:07:17;26.00;99.90
37410;DHT22;23275;48.914;12.566;2022-08-19T14:09:43;25.80;99.90
37410;DHT22;23275;48.914;12.566;2022-08-19T14:12:08;25.70;99.90
37410;DHT22;23275;48.914;12.566;2022-08-19T14:14:40;25.70;99.90
37410;DHT22;23275;48.914;12.566;2022-08-19T14:17:06;25.50;99.90
37410;DHT22;23275;48.914;12.566;2022-08-19T14:19:33;25.40;99.90
37410;DHT22;23275;48.914;12.566;2022-08-19T14:21:58;25.40;99.90
37410;DHT22;23275;48.914;12.566;2022-08-19T14:24:24;25.40;99.90
37410;DHT22;23275;48.914;12.566;2022-08-19T14:26:50;25.40;99.90
37410;DHT22;23275;48.914;12.566;2022-08-19T14:29:15;25.30;99.90
37410;DHT22;23275;48.914;12.566;2022-08-19T14:31:41;25.30;99.90
37410;DHT22;23275;48.914;12.566;2022-08-19T14:34:08;25.20;99.90
37410;DHT22;23275;48.914;12.566;2022-08-19T14:36:38;25.20;99.90
37410;DHT22;23275;48.914;12.566;2022-08-19T14:39:04;25.00;99.90
37410;DHT22;23275;48.914;12.566;2022-08-19T14:41:30;24.90;99.90
37410;DHT22;23275;48.914;12.566;2022-08-19T14:43:56;24.80;99.90
37410;DHT22;23275;48.914;12.566;2022-08-19T14:46:26;24.70;99.90
37410;DHT22;23275;48.914;12.566;2022-08-19T14:48:52;24.60;99.90
37410;DHT22;23275;48.914;12.566;2022-08-19T14:51:19;24.60;99.90
37410;DHT22;23275;48.914;12.566;2022-08-19T14:53:45;24.60;99.90
37410;DHT22;23275;48.914;12.566;2022-08-19T14:56:15;24.60;99.90
37410;DHT22;23275;48.914;12.566;2022-08-19T14:58:42;24.60;99.90
37410;DHT22;23275;48.914;12.566;2022-08-19T15:01:09;24.70;99.90
37410;DHT22;23275;48.914;12.566;2022-08-19T15:03:35;24.70;99.90
37410;DHT22;23275;48.914;12.566;2022-08-19T15:06:03;24.60;99.90
37410;DHT22;23275;48.914;12.566;2022-08-19T15:08:30;24.60;99.90
37410;DHT22;23275;48.914;12.566;2022-08-19T15:10:57;24.60;99.90
37410;DHT22;23275;48.914;12.566;2022-08-19T15:13:24;24.50;99.90
37410;DHT22;23275;48.914;12.566;2022-08-19T15:15:50;24.40;99.90
37410;DHT22;23275;48.914;12.566;2022-08-19T15:18:17;24.30;99.90
37410;DHT22;23275;48.914;12.566;2022-08-19T15:20:43;24.10;99.90
37410;DHT22;23275;48.914;12.566;2022-08-19T15:23:09;24.10;99.90
37410;DHT22;23275;48.914;12.566;2022-08-19T15:25:36;24.10;99.90
37410;DHT22;23275;48.914;12.566;2022-08-19T15:28:02;24.10;99.90
37410;DHT22;23275;48.914;12.566;2022-08-19T15:30:29;24.10;99.90